createdAt,value
2019-01-31T00:00:12.628Z,5.40
2019-01-31T00:01:12.625Z,5.60
2019-01-31T00:02:12.613Z,5.60
2019-01-31T00:03:12.598Z,7.10
2019-01-31T00:04:12.592Z,6.40
2019-01-31T00:05:12.611Z,6.10
2019-01-31T00:06:12.569Z,5.60
2019-01-31T00:07:12.553Z,6.70
2019-01-31T00:08:12.547Z,6.60
2019-01-31T00:09:12.535Z,6.60
2019-01-31T00:10:12.523Z,6.70
2019-01-31T00:11:12.551Z,6.40
2019-01-31T00:12:22.531Z,6.40
2019-01-31T00:13:12.495Z,6.60
2019-01-31T00:14:12.483Z,6.20
2019-01-31T00:15:12.478Z,6.60
2019-01-31T00:16:12.462Z,6.90
2019-01-31T00:17:12.491Z,6.40
2019-01-31T00:18:12.438Z,7.20
2019-01-31T00:19:12.432Z,7.30
2019-01-31T00:20:12.426Z,6.90
2019-01-31T00:21:12.414Z,7.50
2019-01-31T00:22:13.082Z,6.90
2019-01-31T00:23:12.426Z,8.20
2019-01-31T00:24:12.382Z,6.80
2019-01-31T00:25:12.381Z,7.30
2019-01-31T00:26:12.356Z,7.60
2019-01-31T00:27:12.353Z,7.30
2019-01-31T00:28:12.341Z,7.90
2019-01-31T00:29:12.432Z,7.70
2019-01-31T00:30:12.315Z,8.10
2019-01-31T00:31:12.306Z,7.80
2019-01-31T00:32:12.300Z,7.10
2019-01-31T00:33:12.284Z,7.40
2019-01-31T00:34:12.276Z,7.50
2019-01-31T00:35:12.302Z,8.70
2019-01-31T00:36:12.255Z,7.60
2019-01-31T00:37:12.247Z,8.00
2019-01-31T00:38:12.228Z,7.70
2019-01-31T00:39:12.221Z,8.00
2019-01-31T00:40:12.210Z,8.30
2019-01-31T00:41:12.371Z,8.00
2019-01-31T00:42:12.195Z,7.70
2019-01-31T00:43:24.104Z,8.40
2019-01-31T00:44:12.166Z,9.10
2019-01-31T00:45:12.164Z,8.40
2019-01-31T00:46:12.152Z,8.00
2019-01-31T00:47:12.312Z,8.30
2019-01-31T00:48:12.134Z,8.00
2019-01-31T00:49:12.122Z,7.80
2019-01-31T00:50:12.112Z,8.10
2019-01-31T00:51:12.094Z,8.30
2019-01-31T00:52:12.094Z,7.40
2019-01-31T00:53:12.169Z,7.70
2019-01-31T00:54:12.066Z,7.70
2019-01-31T00:55:12.055Z,7.50
2019-01-31T00:56:12.048Z,7.00
2019-01-31T00:57:12.042Z,7.40
2019-01-31T00:58:12.020Z,7.20
2019-01-31T00:59:12.056Z,7.50
2019-01-31T01:00:12.006Z,7.00
2019-01-31T01:01:11.989Z,7.20
2019-01-31T01:02:11.983Z,7.20
2019-01-31T01:03:11.978Z,6.60
2019-01-31T01:04:11.964Z,6.60
2019-01-31T01:05:12.620Z,6.60
2019-01-31T01:06:11.945Z,6.50
2019-01-31T01:07:11.935Z,6.80
2019-01-31T01:08:11.924Z,6.50
2019-01-31T01:09:11.919Z,6.70
2019-01-31T01:10:11.895Z,6.10
2019-01-31T01:11:11.910Z,6.70
2019-01-31T01:12:11.877Z,6.90
2019-01-31T01:13:11.869Z,6.80
2019-01-31T01:14:23.964Z,6.90
2019-01-31T01:15:11.853Z,8.30
2019-01-31T01:16:11.838Z,7.50
2019-01-31T01:17:11.865Z,7.60
2019-01-31T01:18:11.812Z,7.40
2019-01-31T01:19:11.808Z,7.30
2019-01-31T01:20:11.797Z,7.40
2019-01-31T01:21:11.784Z,7.30
2019-01-31T01:22:11.775Z,7.50
2019-01-31T01:23:11.807Z,7.00
2019-01-31T01:24:11.757Z,7.30
2019-01-31T01:25:11.740Z,7.50
2019-01-31T01:26:11.730Z,8.00
2019-01-31T01:27:11.721Z,7.00
2019-01-31T01:28:11.713Z,7.50
2019-01-31T01:29:11.731Z,7.60
2019-01-31T01:30:11.691Z,7.80
2019-01-31T01:31:11.683Z,7.00
2019-01-31T01:32:11.671Z,7.00
2019-01-31T01:33:11.659Z,7.20
2019-01-31T01:34:11.651Z,6.80
2019-01-31T01:35:11.678Z,7.10
2019-01-31T01:36:11.633Z,6.50
2019-01-31T01:37:11.614Z,6.50
2019-01-31T01:38:11.615Z,6.70
2019-01-31T01:39:18.980Z,6.40
2019-01-31T01:40:12.732Z,6.70
2019-01-31T01:41:11.583Z,7.30
2019-01-31T01:42:11.562Z,7.00
2019-01-31T01:43:11.555Z,6.80
2019-01-31T01:44:11.544Z,6.70
2019-01-31T01:45:23.204Z,7.00
2019-01-31T01:46:11.529Z,7.20
2019-01-31T01:47:11.510Z,6.40
2019-01-31T01:48:11.501Z,6.10
2019-01-31T01:49:11.494Z,6.40
2019-01-31T01:50:11.487Z,6.10
2019-01-31T01:51:11.643Z,6.10
2019-01-31T01:52:11.464Z,5.50
2019-01-31T01:53:11.447Z,6.10
2019-01-31T01:54:11.438Z,5.60
2019-01-31T01:55:11.433Z,6.20
2019-01-31T01:56:11.419Z,5.70
2019-01-31T01:57:11.453Z,6.30
2019-01-31T01:58:11.401Z,6.40
2019-01-31T01:59:11.386Z,6.30
2019-01-31T02:00:11.384Z,5.70
2019-01-31T02:01:11.373Z,6.20
2019-01-31T02:02:11.357Z,6.70
2019-01-31T02:03:11.385Z,6.30
2019-01-31T02:04:11.339Z,6.30
2019-01-31T02:05:11.323Z,7.70
2019-01-31T02:06:11.318Z,7.10
2019-01-31T02:07:11.313Z,7.20
2019-01-31T02:08:11.301Z,6.80
2019-01-31T02:09:11.325Z,6.70
2019-01-31T02:10:11.277Z,6.40
2019-01-31T02:11:11.260Z,6.10
2019-01-31T02:12:11.254Z,6.30
2019-01-31T02:13:12.153Z,6.20
2019-01-31T02:14:11.236Z,6.10
2019-01-31T02:15:11.252Z,7.40
2019-01-31T02:16:21.583Z,6.40
2019-01-31T02:17:11.206Z,7.20
2019-01-31T02:18:11.193Z,7.00
2019-01-31T02:19:11.180Z,6.30
2019-01-31T02:20:11.178Z,6.50
2019-01-31T02:21:11.182Z,7.20
2019-01-31T02:22:11.154Z,6.40
2019-01-31T02:23:11.146Z,7.80
2019-01-31T02:24:11.126Z,6.70
2019-01-31T02:25:11.114Z,7.30
2019-01-31T02:26:11.106Z,7.40
2019-01-31T02:27:11.137Z,7.80
2019-01-31T02:28:11.091Z,7.00
2019-01-31T02:29:11.079Z,7.50
2019-01-31T02:30:11.077Z,7.30
2019-01-31T02:31:11.069Z,7.50
2019-01-31T02:32:11.045Z,6.90
2019-01-31T02:33:11.184Z,6.90
2019-01-31T02:34:11.028Z,7.40
2019-01-31T02:35:11.018Z,6.80
2019-01-31T02:36:11.005Z,7.10
2019-01-31T02:37:10.995Z,7.10
2019-01-31T02:38:10.981Z,6.70
2019-01-31T02:39:11.012Z,7.10
2019-01-31T02:40:10.967Z,7.40
2019-01-31T02:41:10.952Z,7.70
2019-01-31T02:42:10.939Z,7.40
2019-01-31T02:43:10.929Z,7.00
2019-01-31T02:44:10.917Z,7.00
2019-01-31T02:45:10.947Z,7.00
2019-01-31T02:46:10.897Z,7.80
2019-01-31T02:47:21.358Z,6.90
2019-01-31T02:48:10.884Z,7.70
2019-01-31T02:49:10.872Z,7.30
2019-01-31T02:50:10.857Z,6.90
2019-01-31T02:51:10.892Z,7.40
2019-01-31T02:52:10.833Z,6.70
2019-01-31T02:53:10.829Z,7.00
2019-01-31T02:54:10.828Z,7.50
2019-01-31T02:55:10.810Z,7.80
2019-01-31T02:56:10.794Z,8.10
2019-01-31T02:57:10.822Z,8.00
2019-01-31T02:58:10.773Z,8.10
2019-01-31T02:59:10.771Z,7.60
2019-01-31T03:00:10.753Z,8.10
2019-01-31T03:01:10.742Z,8.00
2019-01-31T03:02:10.734Z,8.10
2019-01-31T03:03:10.766Z,7.30
2019-01-31T03:04:10.709Z,7.70
2019-01-31T03:05:10.700Z,7.70
2019-01-31T03:06:10.700Z,8.40
2019-01-31T03:07:10.681Z,7.90
2019-01-31T03:08:10.669Z,8.80
2019-01-31T03:09:10.700Z,8.50
2019-01-31T03:10:10.652Z,8.70
2019-01-31T03:11:10.652Z,9.00
2019-01-31T03:12:10.641Z,8.20
2019-01-31T03:13:10.618Z,8.50
2019-01-31T03:14:10.782Z,9.30
2019-01-31T03:15:10.726Z,9.60
2019-01-31T03:16:10.584Z,10.30
2019-01-31T03:17:10.581Z,10.10
2019-01-31T03:18:21.277Z,10.30
2019-01-31T03:19:11.205Z,11.00
2019-01-31T03:20:10.547Z,9.10
2019-01-31T03:21:10.709Z,10.00
2019-01-31T03:22:10.521Z,9.50
2019-01-31T03:23:10.524Z,10.20
2019-01-31T03:24:10.505Z,9.40
2019-01-31T03:25:10.493Z,10.30
2019-01-31T03:26:10.490Z,10.90
2019-01-31T03:27:10.522Z,9.80
2019-01-31T03:28:10.468Z,9.90
2019-01-31T03:29:10.452Z,10.30
2019-01-31T03:30:10.443Z,9.90
2019-01-31T03:31:10.431Z,10.90
2019-01-31T03:32:10.434Z,10.50
2019-01-31T03:33:10.462Z,10.90
2019-01-31T03:34:10.405Z,11.50
2019-01-31T03:35:10.385Z,9.80
2019-01-31T03:36:10.378Z,10.20
2019-01-31T03:37:10.372Z,10.30
2019-01-31T03:38:10.364Z,10.90
2019-01-31T03:39:10.395Z,11.30
2019-01-31T03:40:10.336Z,11.00
2019-01-31T03:41:10.322Z,10.00
2019-01-31T03:42:10.353Z,10.00
2019-01-31T03:43:10.305Z,11.40
2019-01-31T03:44:10.293Z,10.40
2019-01-31T03:45:10.332Z,10.90
2019-01-31T03:46:10.277Z,11.30
2019-01-31T03:47:10.272Z,10.90
2019-01-31T03:48:10.263Z,11.30
2019-01-31T03:49:20.991Z,11.00
2019-01-31T03:50:10.234Z,11.40
2019-01-31T03:51:10.282Z,11.40
2019-01-31T03:52:10.211Z,10.60
2019-01-31T03:53:10.205Z,10.60
2019-01-31T03:54:10.194Z,10.70
2019-01-31T03:55:10.177Z,10.60
2019-01-31T03:56:10.167Z,11.30
2019-01-31T03:57:10.195Z,11.00
2019-01-31T03:58:10.153Z,10.80
2019-01-31T03:59:10.139Z,11.30
2019-01-31T04:00:10.131Z,10.70
2019-01-31T04:01:10.114Z,10.40
2019-01-31T04:02:10.114Z,11.10
2019-01-31T04:03:10.138Z,10.90
2019-01-31T04:04:10.086Z,10.70
2019-01-31T04:05:10.091Z,10.60
2019-01-31T04:06:10.064Z,10.70
2019-01-31T04:07:10.053Z,11.10
2019-01-31T04:08:10.049Z,10.90
2019-01-31T04:09:10.074Z,10.80
2019-01-31T04:10:18.709Z,10.50
2019-01-31T04:11:11.016Z,10.40
2019-01-31T04:12:10.000Z,10.90
2019-01-31T04:13:10.001Z,12.00
2019-01-31T04:14:09.982Z,11.80
2019-01-31T04:15:10.013Z,11.50
2019-01-31T04:16:09.965Z,11.40
2019-01-31T04:17:09.952Z,10.80
2019-01-31T04:18:09.940Z,11.50
2019-01-31T04:19:09.929Z,11.60
2019-01-31T04:20:20.775Z,11.50
2019-01-31T04:21:09.912Z,12.20
2019-01-31T04:22:09.896Z,11.20
2019-01-31T04:23:09.900Z,11.40
2019-01-31T04:24:09.881Z,10.90
2019-01-31T04:25:09.872Z,11.40
2019-01-31T04:26:10.042Z,11.60
2019-01-31T04:27:09.849Z,11.20
2019-01-31T04:28:09.845Z,11.50
2019-01-31T04:29:09.828Z,12.80
2019-01-31T04:30:09.815Z,12.20
2019-01-31T04:31:09.807Z,11.80
2019-01-31T04:32:09.831Z,11.60
2019-01-31T04:33:09.793Z,10.70
2019-01-31T04:34:09.777Z,10.90
2019-01-31T04:35:09.783Z,12.60
2019-01-31T04:36:09.759Z,10.60
2019-01-31T04:37:09.740Z,11.70
2019-01-31T04:38:09.774Z,12.80
2019-01-31T04:39:09.730Z,13.30
2019-01-31T04:40:09.716Z,12.30
2019-01-31T04:41:09.713Z,12.20
2019-01-31T04:42:09.701Z,13.20
2019-01-31T04:43:09.685Z,14.00
2019-01-31T04:44:09.715Z,11.80
2019-01-31T04:45:09.662Z,13.00
2019-01-31T04:46:09.654Z,11.30
2019-01-31T04:47:09.641Z,11.10
2019-01-31T04:48:09.631Z,12.60
2019-01-31T04:49:09.620Z,12.00
2019-01-31T04:50:09.638Z,11.50
2019-01-31T04:51:19.832Z,12.30
2019-01-31T04:52:09.704Z,13.20
2019-01-31T04:53:09.578Z,13.30
2019-01-31T04:54:09.566Z,12.20
2019-01-31T04:55:09.560Z,11.60
2019-01-31T04:56:09.593Z,12.40
2019-01-31T04:57:09.530Z,12.70
2019-01-31T04:58:09.524Z,11.60
2019-01-31T04:59:09.515Z,11.70
2019-01-31T05:00:09.507Z,11.70
2019-01-31T05:01:09.498Z,13.30
2019-01-31T05:02:09.520Z,12.00
2019-01-31T05:03:09.470Z,12.70
2019-01-31T05:04:09.466Z,13.50
2019-01-31T05:05:09.461Z,12.60
2019-01-31T05:06:09.442Z,12.20
2019-01-31T05:07:09.436Z,11.50
2019-01-31T05:08:09.458Z,12.30
2019-01-31T05:09:09.418Z,10.70
2019-01-31T05:10:09.404Z,11.10
2019-01-31T05:11:09.387Z,11.40
2019-01-31T05:12:09.390Z,11.90
2019-01-31T05:13:09.364Z,12.30
2019-01-31T05:14:09.538Z,10.90
2019-01-31T05:15:09.347Z,10.80
2019-01-31T05:16:09.340Z,10.80
2019-01-31T05:17:09.338Z,10.70
2019-01-31T05:18:09.323Z,10.80
2019-01-31T05:19:09.310Z,9.50
2019-01-31T05:20:09.338Z,9.70
2019-01-31T05:21:09.286Z,10.10
2019-01-31T05:22:22.103Z,10.20
2019-01-31T05:23:09.266Z,10.40
2019-01-31T05:24:09.249Z,10.80
2019-01-31T05:25:09.240Z,8.90
2019-01-31T05:26:09.321Z,9.50
2019-01-31T05:27:09.224Z,9.10
2019-01-31T05:28:09.217Z,9.30
2019-01-31T05:29:09.203Z,10.40
2019-01-31T05:30:09.187Z,10.40
2019-01-31T05:31:09.188Z,11.00
2019-01-31T05:32:09.215Z,11.60
2019-01-31T05:33:09.164Z,9.90
2019-01-31T05:34:09.147Z,9.20
2019-01-31T05:35:09.139Z,8.50
2019-01-31T05:36:09.125Z,10.60
2019-01-31T05:37:09.120Z,9.50
2019-01-31T05:38:09.161Z,9.40
2019-01-31T05:39:09.108Z,9.30
2019-01-31T05:40:09.082Z,8.10
2019-01-31T05:41:09.077Z,8.60
2019-01-31T05:42:09.065Z,8.40
2019-01-31T05:43:09.057Z,9.00
2019-01-31T05:44:09.088Z,9.60
2019-01-31T05:45:09.031Z,8.50
2019-01-31T05:46:09.025Z,8.10
2019-01-31T05:47:09.016Z,9.40
2019-01-31T05:48:09.002Z,8.50
2019-01-31T05:49:09.002Z,8.10
2019-01-31T05:50:09.027Z,8.40
2019-01-31T05:51:08.974Z,8.10
2019-01-31T05:52:08.965Z,9.00
2019-01-31T05:53:19.303Z,9.50
2019-01-31T05:54:08.938Z,8.70
2019-01-31T05:55:08.934Z,8.60
2019-01-31T05:56:08.935Z,9.00
2019-01-31T05:57:08.908Z,8.30
2019-01-31T05:58:08.910Z,8.50
2019-01-31T05:59:08.891Z,8.10
2019-01-31T06:00:08.888Z,8.10
2019-01-31T06:01:08.888Z,7.60
2019-01-31T06:02:09.028Z,8.60
2019-01-31T06:03:08.845Z,8.80
2019-01-31T06:04:08.842Z,9.40
2019-01-31T06:05:08.830Z,9.70
2019-01-31T06:06:08.846Z,8.70
2019-01-31T06:07:11.099Z,7.40
2019-01-31T06:08:09.013Z,8.10
2019-01-31T06:09:08.781Z,7.10
2019-01-31T06:10:08.776Z,7.90
2019-01-31T06:11:08.787Z,7.20
2019-01-31T06:12:08.761Z,8.80
2019-01-31T06:13:08.743Z,8.50
2019-01-31T06:14:08.775Z,8.00
2019-01-31T06:15:08.721Z,8.00
2019-01-31T06:16:08.708Z,7.40
2019-01-31T06:17:08.700Z,7.60
2019-01-31T06:18:08.694Z,7.20
2019-01-31T06:19:08.680Z,8.00
2019-01-31T06:20:08.713Z,7.90
2019-01-31T06:21:08.658Z,8.00
2019-01-31T06:22:08.651Z,8.20
2019-01-31T06:23:08.640Z,8.30
2019-01-31T06:24:18.849Z,8.20
2019-01-31T06:25:08.628Z,7.80
2019-01-31T06:26:08.645Z,7.90
2019-01-31T06:27:08.598Z,8.10
2019-01-31T06:28:08.593Z,8.30
2019-01-31T06:29:08.578Z,8.90
2019-01-31T06:30:08.568Z,9.00
2019-01-31T06:31:08.569Z,7.30
2019-01-31T06:32:08.585Z,7.30
2019-01-31T06:33:08.531Z,7.60
2019-01-31T06:34:08.520Z,6.60
2019-01-31T06:35:08.524Z,6.90
2019-01-31T06:36:08.507Z,6.90
2019-01-31T06:37:08.502Z,7.60
2019-01-31T06:38:08.495Z,7.30
2019-01-31T06:39:08.577Z,7.80
2019-01-31T06:40:08.463Z,7.10
2019-01-31T06:41:18.185Z,7.70
2019-01-31T06:42:09.436Z,7.60
2019-01-31T06:43:08.434Z,7.50
2019-01-31T06:44:08.587Z,8.40
2019-01-31T06:45:08.421Z,8.00
2019-01-31T06:46:08.401Z,7.70
2019-01-31T06:47:08.393Z,8.00
2019-01-31T06:48:08.378Z,8.20
2019-01-31T06:49:08.383Z,7.70
2019-01-31T06:50:08.398Z,7.00
2019-01-31T06:51:08.358Z,7.30
2019-01-31T06:52:08.339Z,7.60
2019-01-31T06:53:08.347Z,7.10
2019-01-31T06:54:08.316Z,7.60
2019-01-31T06:55:20.822Z,6.90
2019-01-31T06:56:08.293Z,7.80
2019-01-31T06:57:08.281Z,7.60
2019-01-31T06:58:08.807Z,6.90
2019-01-31T06:59:08.260Z,7.50
2019-01-31T07:00:08.277Z,7.20
2019-01-31T07:01:08.276Z,6.90
2019-01-31T07:02:08.240Z,6.50
2019-01-31T07:03:08.230Z,6.90
2019-01-31T07:04:10.990Z,7.70
2019-01-31T07:05:08.198Z,7.50
2019-01-31T07:06:08.192Z,7.10
2019-01-31T07:07:08.215Z,7.90
2019-01-31T07:08:08.170Z,7.30
2019-01-31T07:09:08.157Z,6.70
2019-01-31T07:10:08.144Z,7.60
2019-01-31T07:11:08.136Z,7.80
2019-01-31T07:12:08.132Z,7.70
2019-01-31T07:13:08.293Z,8.80
2019-01-31T07:14:08.117Z,8.20
2019-01-31T07:15:08.150Z,7.30
2019-01-31T07:16:08.092Z,8.10
2019-01-31T07:17:08.073Z,7.20
2019-01-31T07:18:08.069Z,6.20
2019-01-31T07:19:08.103Z,7.20
2019-01-31T07:20:08.047Z,7.10
2019-01-31T07:21:08.034Z,7.20
2019-01-31T07:22:08.031Z,6.80
2019-01-31T07:23:08.017Z,7.20
2019-01-31T07:24:08.013Z,7.20
2019-01-31T07:25:08.173Z,5.80
2019-01-31T07:26:19.057Z,6.60
2019-01-31T07:27:07.972Z,6.80
2019-01-31T07:28:07.955Z,6.70
2019-01-31T07:29:08.119Z,6.80
2019-01-31T07:30:07.940Z,8.00
2019-01-31T07:31:08.368Z,8.50
2019-01-31T07:32:07.916Z,7.80
2019-01-31T07:33:07.910Z,7.90
2019-01-31T07:34:07.904Z,6.90
2019-01-31T07:35:07.911Z,6.60
2019-01-31T07:36:07.876Z,6.70
2019-01-31T07:37:07.909Z,6.90
2019-01-31T07:38:07.863Z,7.60
2019-01-31T07:39:07.853Z,7.50
2019-01-31T07:40:07.840Z,7.20
2019-01-31T07:41:07.823Z,7.10
2019-01-31T07:42:07.814Z,7.40
2019-01-31T07:43:07.984Z,7.10
2019-01-31T07:44:07.793Z,8.50
2019-01-31T07:45:07.778Z,7.70
2019-01-31T07:46:07.771Z,8.90
2019-01-31T07:47:07.764Z,7.90
2019-01-31T07:48:07.759Z,8.60
2019-01-31T07:49:07.777Z,8.10
2019-01-31T07:50:07.725Z,8.20
2019-01-31T07:51:07.728Z,8.90
2019-01-31T07:52:07.707Z,8.50
2019-01-31T07:53:07.698Z,8.00
2019-01-31T07:54:07.689Z,7.50
2019-01-31T07:55:07.824Z,7.30
2019-01-31T07:56:07.669Z,8.10
2019-01-31T07:57:18.690Z,7.70
2019-01-31T07:58:07.647Z,8.30
2019-01-31T07:59:07.634Z,8.50
2019-01-31T08:00:07.628Z,9.10
2019-01-31T08:01:07.655Z,8.70
2019-01-31T08:02:07.957Z,9.60
2019-01-31T08:03:07.595Z,9.30
2019-01-31T08:04:07.581Z,9.30
2019-01-31T08:05:07.577Z,8.60
2019-01-31T08:06:07.566Z,8.70
2019-01-31T08:07:07.587Z,8.40
2019-01-31T08:08:07.542Z,9.00
2019-01-31T08:09:07.532Z,8.20
2019-01-31T08:10:07.519Z,8.10
2019-01-31T08:11:07.519Z,8.00
2019-01-31T08:12:07.509Z,7.50
2019-01-31T08:13:07.521Z,8.30
2019-01-31T08:14:07.481Z,8.00
2019-01-31T08:15:07.815Z,7.50
2019-01-31T08:16:07.487Z,7.10
2019-01-31T08:17:07.443Z,7.50
2019-01-31T08:18:07.440Z,7.60
2019-01-31T08:19:07.477Z,7.50
2019-01-31T08:20:07.421Z,8.30
2019-01-31T08:21:07.405Z,8.90
2019-01-31T08:22:07.391Z,7.90
2019-01-31T08:23:07.392Z,8.30
2019-01-31T08:24:09.543Z,8.10
2019-01-31T08:25:07.406Z,7.40
2019-01-31T08:26:07.354Z,7.10
2019-01-31T08:27:07.346Z,7.70
2019-01-31T08:28:17.276Z,8.00
2019-01-31T08:29:07.321Z,7.20
2019-01-31T08:30:07.331Z,7.00
2019-01-31T08:31:07.336Z,6.60
2019-01-31T08:32:07.284Z,6.30
2019-01-31T08:33:07.276Z,7.10
2019-01-31T08:34:07.270Z,7.10
2019-01-31T08:35:07.291Z,6.90
2019-01-31T08:36:07.249Z,8.60
2019-01-31T08:37:07.273Z,7.90
2019-01-31T08:38:07.228Z,7.70
2019-01-31T08:39:07.212Z,7.80
2019-01-31T08:40:07.201Z,7.60
2019-01-31T08:41:07.194Z,8.30
2019-01-31T08:42:07.186Z,8.50
2019-01-31T08:43:07.246Z,7.60
2019-01-31T08:44:07.161Z,8.70
2019-01-31T08:45:07.194Z,8.20
2019-01-31T08:46:07.140Z,8.20
2019-01-31T08:47:07.133Z,8.60
2019-01-31T08:48:07.117Z,7.80
2019-01-31T08:49:07.447Z,8.00
2019-01-31T08:50:07.120Z,7.90
2019-01-31T08:51:07.086Z,8.30
2019-01-31T08:52:07.073Z,7.80
2019-01-31T08:53:07.065Z,7.80
2019-01-31T08:54:07.057Z,8.30
2019-01-31T08:55:07.087Z,7.70
2019-01-31T08:56:07.041Z,8.40
2019-01-31T08:57:07.097Z,8.10
2019-01-31T08:58:07.016Z,9.10
2019-01-31T08:59:17.564Z,9.50
2019-01-31T09:00:06.995Z,8.90
2019-01-31T09:01:07.018Z,8.80
2019-01-31T09:02:06.969Z,8.40
2019-01-31T09:03:06.960Z,9.40
2019-01-31T09:04:07.032Z,7.90
2019-01-31T09:05:06.941Z,8.90
2019-01-31T09:06:07.013Z,7.70
2019-01-31T09:07:06.969Z,7.80
2019-01-31T09:08:06.924Z,8.40
2019-01-31T09:09:06.893Z,7.10
2019-01-31T09:10:06.888Z,7.40
2019-01-31T09:11:06.873Z,7.20
2019-01-31T09:12:14.963Z,6.70
2019-01-31T09:13:07.895Z,6.10
2019-01-31T09:14:06.848Z,6.10
2019-01-31T09:15:06.841Z,6.40
2019-01-31T09:16:06.888Z,5.70
2019-01-31T09:17:06.811Z,6.20
2019-01-31T09:18:06.800Z,6.30
2019-01-31T09:19:06.855Z,6.40
2019-01-31T09:20:06.782Z,6.10
2019-01-31T09:21:06.779Z,6.40
2019-01-31T09:22:06.758Z,5.60
2019-01-31T09:23:06.759Z,5.60
2019-01-31T09:24:06.767Z,5.90
2019-01-31T09:25:06.790Z,5.90
2019-01-31T09:26:06.743Z,5.80
2019-01-31T09:27:13.712Z,5.40
2019-01-31T09:28:06.697Z,5.90
2019-01-31T09:29:06.686Z,6.30
2019-01-31T09:30:06.681Z,6.40
2019-01-31T09:31:06.836Z,6.30
2019-01-31T09:32:06.663Z,6.00
2019-01-31T09:33:06.644Z,6.10
2019-01-31T09:34:06.632Z,6.30
2019-01-31T09:35:06.635Z,6.80
2019-01-31T09:36:06.622Z,5.90
2019-01-31T09:37:06.646Z,6.20
2019-01-31T09:38:06.597Z,6.50
2019-01-31T09:39:06.577Z,5.90
2019-01-31T09:40:06.590Z,6.10
2019-01-31T09:41:08.488Z,6.30
2019-01-31T09:42:06.553Z,6.20
2019-01-31T09:43:06.567Z,6.40
2019-01-31T09:44:06.534Z,5.50
2019-01-31T09:45:06.523Z,6.80
2019-01-31T09:46:06.516Z,6.30
2019-01-31T09:47:06.496Z,5.80
2019-01-31T09:48:06.484Z,5.80
2019-01-31T09:49:06.527Z,5.60
2019-01-31T09:50:06.465Z,5.80
2019-01-31T09:51:06.451Z,5.70
2019-01-31T09:52:06.444Z,5.80
2019-01-31T09:53:07.366Z,6.10
2019-01-31T09:54:06.419Z,6.00
2019-01-31T09:55:06.431Z,5.80
2019-01-31T09:56:06.399Z,5.70
2019-01-31T09:57:06.399Z,5.70
2019-01-31T09:58:16.294Z,5.60
2019-01-31T09:59:06.371Z,6.10
2019-01-31T10:00:06.356Z,6.20
2019-01-31T10:01:06.393Z,5.20
2019-01-31T10:02:06.463Z,5.60
2019-01-31T10:03:06.334Z,5.90
2019-01-31T10:04:06.322Z,5.70
2019-01-31T10:05:06.301Z,5.40
2019-01-31T10:06:06.322Z,5.80
2019-01-31T10:07:06.324Z,6.00
2019-01-31T10:08:06.282Z,5.80
2019-01-31T10:09:06.267Z,5.80
2019-01-31T10:10:06.251Z,5.60
2019-01-31T10:11:06.264Z,5.90
2019-01-31T10:12:06.230Z,5.90
2019-01-31T10:13:06.274Z,5.80
2019-01-31T10:14:06.222Z,5.90
2019-01-31T10:15:06.205Z,5.50
2019-01-31T10:16:06.393Z,5.30
2019-01-31T10:17:06.195Z,5.70
2019-01-31T10:18:06.225Z,5.20
2019-01-31T10:19:06.177Z,5.90
2019-01-31T10:20:06.154Z,5.30
2019-01-31T10:21:06.193Z,5.80
2019-01-31T10:22:06.179Z,6.20
2019-01-31T10:23:06.134Z,5.90
2019-01-31T10:24:06.105Z,6.10
2019-01-31T10:25:06.189Z,6.30
2019-01-31T10:26:06.094Z,6.90
2019-01-31T10:27:06.163Z,6.50
2019-01-31T10:28:06.059Z,6.70
2019-01-31T10:29:16.471Z,6.50
2019-01-31T10:30:06.045Z,6.80
2019-01-31T10:31:07.011Z,6.20
2019-01-31T10:32:06.026Z,6.20
2019-01-31T10:33:06.020Z,6.50
2019-01-31T10:34:06.001Z,6.20
2019-01-31T10:35:05.983Z,6.20
2019-01-31T10:36:05.986Z,6.20
2019-01-31T10:37:05.984Z,6.20
2019-01-31T10:38:05.961Z,6.40
2019-01-31T10:39:05.951Z,5.70
2019-01-31T10:40:05.963Z,6.30
2019-01-31T10:41:05.921Z,6.80
2019-01-31T10:42:05.915Z,6.30
2019-01-31T10:43:05.975Z,7.00
2019-01-31T10:44:05.901Z,7.30
2019-01-31T10:45:05.889Z,7.20
2019-01-31T10:46:05.872Z,7.10
2019-01-31T10:47:05.868Z,7.50
2019-01-31T10:48:05.875Z,6.20
2019-01-31T10:49:05.856Z,7.40
2019-01-31T10:50:05.971Z,7.30
2019-01-31T10:51:05.836Z,6.80
2019-01-31T10:52:05.806Z,7.30
2019-01-31T10:53:05.792Z,7.00
2019-01-31T10:54:05.798Z,6.90
2019-01-31T10:55:05.813Z,7.10
2019-01-31T10:56:05.768Z,7.20
2019-01-31T10:57:05.765Z,6.70
2019-01-31T10:58:05.929Z,6.70
2019-01-31T10:59:06.407Z,7.00
2019-01-31T11:00:16.637Z,6.90
2019-01-31T11:01:05.717Z,6.90
2019-01-31T11:02:05.699Z,6.90
2019-01-31T11:03:05.687Z,6.80
2019-01-31T11:04:05.676Z,8.00
2019-01-31T11:05:05.679Z,8.50
2019-01-31T11:06:05.709Z,9.40
2019-01-31T11:07:05.646Z,8.60
2019-01-31T11:08:05.643Z,9.30
2019-01-31T11:09:05.636Z,9.50
2019-01-31T11:10:05.625Z,8.10
2019-01-31T11:11:05.603Z,7.80
2019-01-31T11:12:05.650Z,7.70
2019-01-31T11:13:05.584Z,8.60
2019-01-31T11:14:05.572Z,8.70
2019-01-31T11:15:05.581Z,8.90
2019-01-31T11:16:05.553Z,8.60
2019-01-31T11:17:05.548Z,10.70
2019-01-31T11:18:05.563Z,9.30
2019-01-31T11:19:12.612Z,8.10
2019-01-31T11:20:06.515Z,9.70
2019-01-31T11:21:05.524Z,8.80
2019-01-31T11:22:05.486Z,9.40
2019-01-31T11:23:05.485Z,8.40
2019-01-31T11:24:05.645Z,9.20
2019-01-31T11:25:05.465Z,8.00
2019-01-31T11:26:05.460Z,9.30
2019-01-31T11:27:05.438Z,9.00
2019-01-31T11:28:05.445Z,9.30
2019-01-31T11:29:05.426Z,8.90
2019-01-31T11:30:05.484Z,9.10
2019-01-31T11:31:17.114Z,8.70
2019-01-31T11:32:05.380Z,8.70
2019-01-31T11:33:05.394Z,7.30
2019-01-31T11:34:05.362Z,7.50
2019-01-31T11:35:05.355Z,7.70
2019-01-31T11:36:05.365Z,7.80
2019-01-31T11:37:05.357Z,7.60
2019-01-31T11:38:05.338Z,8.30
2019-01-31T11:39:05.321Z,7.50
2019-01-31T11:40:05.306Z,7.80
2019-01-31T11:41:05.301Z,7.90
2019-01-31T11:42:05.985Z,7.20
2019-01-31T11:43:11.479Z,6.90
2019-01-31T11:44:06.258Z,8.20
2019-01-31T11:45:05.275Z,8.40
2019-01-31T11:46:05.247Z,7.80
2019-01-31T11:47:05.225Z,8.10
2019-01-31T11:48:05.283Z,8.00
2019-01-31T11:49:05.210Z,8.30
2019-01-31T11:50:05.210Z,8.60
2019-01-31T11:51:05.222Z,8.70
2019-01-31T11:52:05.186Z,8.40
2019-01-31T11:53:05.251Z,8.10
2019-01-31T11:54:05.193Z,8.30
2019-01-31T11:55:05.148Z,8.30
2019-01-31T11:56:05.159Z,8.80
2019-01-31T11:57:05.787Z,8.40
2019-01-31T11:58:05.153Z,9.30
2019-01-31T11:59:05.112Z,9.30
2019-01-31T12:00:05.264Z,8.90
2019-01-31T12:01:05.083Z,9.20
2019-01-31T12:02:15.122Z,9.80
2019-01-31T12:03:05.068Z,8.10
2019-01-31T12:04:05.052Z,9.40
2019-01-31T12:05:06.029Z,9.10
2019-01-31T12:06:05.070Z,10.10
2019-01-31T12:07:05.014Z,9.50
2019-01-31T12:08:05.007Z,9.20
2019-01-31T12:09:05.001Z,8.80
2019-01-31T12:10:04.978Z,9.50
2019-01-31T12:11:04.974Z,9.00
2019-01-31T12:12:05.018Z,8.60
2019-01-31T12:13:04.950Z,8.40
2019-01-31T12:14:04.949Z,7.80
2019-01-31T12:15:04.941Z,9.20
2019-01-31T12:16:04.926Z,8.80
2019-01-31T12:17:04.912Z,8.50
2019-01-31T12:18:04.932Z,8.80
2019-01-31T12:19:07.428Z,8.70
2019-01-31T12:20:04.883Z,10.60
2019-01-31T12:21:04.865Z,9.70
2019-01-31T12:22:04.867Z,10.10
2019-01-31T12:23:04.847Z,10.60
2019-01-31T12:24:04.853Z,9.90
2019-01-31T12:25:04.833Z,10.00
2019-01-31T12:26:04.813Z,11.00
2019-01-31T12:27:04.798Z,11.30
2019-01-31T12:28:04.789Z,10.70
2019-01-31T12:29:04.788Z,12.60
2019-01-31T12:30:04.825Z,12.00
2019-01-31T12:31:04.764Z,12.20
2019-01-31T12:32:04.745Z,12.10
2019-01-31T12:33:16.090Z,12.90
2019-01-31T12:34:04.734Z,12.90
2019-01-31T12:35:04.721Z,13.20
2019-01-31T12:36:04.804Z,12.70
2019-01-31T12:37:04.699Z,12.00
2019-01-31T12:38:04.711Z,11.20
2019-01-31T12:39:04.672Z,12.40
2019-01-31T12:40:04.667Z,12.60
2019-01-31T12:41:04.656Z,12.00
2019-01-31T12:42:04.701Z,12.00
2019-01-31T12:43:04.627Z,12.00
2019-01-31T12:44:04.618Z,11.80
2019-01-31T12:45:04.606Z,11.80
2019-01-31T12:46:04.596Z,12.00
2019-01-31T12:47:04.596Z,12.20
2019-01-31T12:48:04.615Z,11.20
2019-01-31T12:49:04.568Z,10.90
2019-01-31T12:50:04.562Z,10.20
2019-01-31T12:51:04.544Z,9.60
2019-01-31T12:52:04.709Z,10.50
2019-01-31T12:53:04.540Z,9.60
2019-01-31T12:54:04.577Z,9.70
2019-01-31T12:55:04.506Z,10.10
2019-01-31T12:56:04.496Z,10.40
2019-01-31T12:57:04.481Z,9.50
2019-01-31T12:58:04.473Z,9.20
2019-01-31T12:59:04.471Z,8.90
2019-01-31T13:00:04.470Z,7.70
2019-01-31T13:01:04.439Z,6.40
2019-01-31T13:02:04.436Z,6.20
2019-01-31T13:03:04.416Z,6.90
2019-01-31T13:04:14.792Z,6.30
2019-01-31T13:05:04.394Z,6.90
2019-01-31T13:06:04.420Z,7.20
2019-01-31T13:07:04.378Z,6.70
2019-01-31T13:08:04.364Z,6.50
2019-01-31T13:09:04.361Z,7.00
2019-01-31T13:10:04.347Z,7.10
2019-01-31T13:11:05.071Z,6.90
2019-01-31T13:12:04.377Z,6.60
2019-01-31T13:13:04.311Z,7.00